Time;durP1;ratioP1;P1;durP2;ratioP2;P2;SDS_P1;SDS_P2;PMS_P1;PMS_P2;Temp;Humidity;BMP_temperature;BMP_pressure;BME280_temperature;BME280_humidity;BME280_pressure;Samples;Min_cycle;Max_cycle;Signal;HPM_P1;HPM_P2
2023/05/24 00:05:42;;;;;;;;;;;;;;;;;;;;;
2023/05/24 00:08:26;;;;;;;;;;;10.30;68.30;;;;;;5007043;28;19923;-86
2023/05/24 00:11:03;;;;;;;;;;;10.20;68.60;;;;;;5034203;28;19921;-86
2023/05/24 00:14:21;;;;;;;;;;;10.10;69.00;;;;;;5034122;28;19917;-86
2023/05/24 00:16:31;;;;;;;;;;;10.10;69.80;;;;;;5017467;28;20318;-86
2023/05/24 00:19:00;;;;;;;;;;;10.10;69.60;;;;;;5031847;28;20325;-86
2023/05/24 00:21:26;;;;;;;;;;;10.10;69.60;;;;;;5029622;28;19928;-86
2023/05/24 00:23:52;;;;;;;;;;;10.00;69.50;;;;;;5034800;28;19913;-86
2023/05/24 00:29:06;;;;;;;;;;;10.00;71.00;;;;;;5014696;28;19972;-86
2023/05/24 00:31:50;;;;;;;;;;;10.00;71.10;;;;;;5030979;28;19924;-85
2023/05/24 00:34:23;;;;;;;;;;;10.10;70.30;;;;;;5032088;28;20295;-85
2023/05/24 00:37:28;;;;;;;;;;;10.00;71.10;;;;;;5033150;28;19917;-85
2023/05/24 00:39:58;;;;;;;;;;;10.10;71.00;;;;;;5029530;28;19917;-85
2023/05/24 00:42:41;;;;;;;;;;;10.10;71.10;;;;;;5017010;28;19915;-85
2023/05/24 00:45:13;;;;;;;;;;;10.00;71.10;;;;;;5032108;28;19917;-86
2023/05/24 00:47:39;;;;;;;;;;;10.00;72.10;;;;;;5032668;28;19967;-86
2023/05/24 00:50:13;;;;;;;;;;;10.10;72.30;;;;;;5032283;28;19917;-85
2023/05/24 00:52:42;;;;;;;;;;;10.00;71.50;;;;;;5030601;28;19924;-85
2023/05/24 00:55:11;;;;;;;;;;;10.10;71.20;;;;;;5032633;28;20330;-85
2023/05/24 00:57:55;;;;;;;;;;;10.10;71.40;;;;;;5031441;28;19913;-85
2023/05/24 01:04:00;;;;;;;;;;;;;;;;;;;;;
2023/05/24 01:06:58;;;;;;;;;;;9.70;73.30;;;;;;5035597;28;19956;-85
2023/05/24 01:09:27;;;;;;;;;;;9.80;73.30;;;;;;4931106;28;19921;-85
2023/05/24 01:12:21;;;;;;;;;;;9.60;72.50;;;;;;5052833;28;19928;-86
2023/05/24 01:14:56;;;;;;;;;;;9.50;73.10;;;;;;5038836;28;19971;-85
2023/05/24 01:18:04;;;;;;;;;;;9.50;73.30;;;;;;5032202;28;19910;-85
2023/05/24 01:20:52;;;;;;;;;;;9.60;73.40;;;;;;4985122;28;19913;-85
2023/05/24 01:27:12;;;;;;;;;;;9.50;73.80;;;;;;4897915;29;19975;-86
2023/05/24 01:29:56;;;;;;;;;;;9.60;73.30;;;;;;4979428;28;19922;-85
2023/05/24 01:32:27;;;;;;;;;;;9.40;74.20;;;;;;4983585;28;20393;-86
2023/05/24 01:35:20;;;;;;;;;;;;;;;;;;;;;
2023/05/24 01:37:55;;;;;;;;;;;9.30;74.70;;;;;;5002144;28;19913;-85
2023/05/24 01:40:32;;;;;;;;;;;9.30;74.50;;;;;;5031867;28;19909;-85
2023/05/24 01:43:13;;;;;;;;;;;9.30;74.60;;;;;;5034197;28;19913;-86
2023/05/24 01:46:02;;;;;;;;;;;9.30;74.20;;;;;;5023548;28;19917;-85
2023/05/24 01:48:35;;;;;;;;;;;9.30;74.50;;;;;;5016884;28;19919;-86
2023/05/24 01:51:26;;;;;;;;;;;9.30;74.50;;;;;;5041038;28;19901;-85
2023/05/24 01:53:53;;;;;;;;;;;9.10;74.90;;;;;;5032536;28;20003;-85
2023/05/24 01:59:11;;;;;;;;;;;8.90;75.70;;;;;;5042833;28;19913;-85
2023/05/24 02:01:37;;;;;;;;;;;9.00;75.70;;;;;;5022025;28;19922;-85
2023/05/24 02:04:05;;;;;;;;;;;8.90;76.20;;;;;;5031066;28;20290;-85
2023/05/24 02:06:34;;;;;;;;;;;9.10;75.50;;;;;;5031437;28;19918;-85
2023/05/24 02:09:03;;;;;;;;;;;9.10;75.00;;;;;;5028856;28;19963;-85
2023/05/24 02:11:34;;;;;;;;;;;8.90;75.60;;;;;;5032952;28;19925;-85
2023/05/24 02:14:00;;;;;;;;;;;8.70;76.40;;;;;;5032030;28;19913;-85
2023/05/24 02:16:29;;;;;;;;;;;8.70;76.70;;;;;;5032079;28;19921;-85
2023/05/24 02:18:58;;;;;;;;;;;8.80;76.50;;;;;;5020474;28;19975;-85
2023/05/24 02:21:27;;;;;;;;;;;8.80;76.30;;;;;;5029714;28;20391;-85
2023/05/24 02:23:53;;;;;;;;;;;9.00;75.50;;;;;;5024224;28;20019;-85
2023/05/24 02:26:18;;;;;;;;;;;8.90;75.70;;;;;;5031713;28;20385;-85
2023/05/24 02:28:44;;;;;;;;;;;8.80;75.90;;;;;;5051594;28;19913;-85
2023/05/24 02:31:09;;;;;;;;;;;8.90;75.90;;;;;;5038931;28;19917;-85
2023/05/24 02:33:35;;;;;;;;;;;8.90;75.70;;;;;;5036989;28;19939;-85
2023/05/24 02:36:01;;;;;;;;;;;9.10;75.10;;;;;;5032017;28;19971;-85
2023/05/24 02:38:26;;;;;;;;;;;8.90;74.30;;;;;;5035255;28;19952;-85
2023/05/24 02:40:52;;;;;;;;;;;8.70;74.80;;;;;;5035760;28;19981;-85
2023/05/24 02:43:17;;;;;;;;;;;8.90;75.00;;;;;;5035872;28;19909;-85
2023/05/24 02:45:43;;;;;;;;;;;8.70;75.70;;;;;;5031516;28;19913;-85
2023/05/24 02:48:08;;;;;;;;;;;8.70;76.30;;;;;;5033784;28;19913;-85
2023/05/24 02:50:35;;;;;;;;;;;8.80;75.60;;;;;;5030714;28;19975;-85
2023/05/24 02:53:01;;;;;;;;;;;8.60;76.50;;;;;;5034330;28;20358;-85
2023/05/24 02:55:27;;;;;;;;;;;8.60;76.90;;;;;;5022411;28;20012;-85
2023/05/24 02:57:53;;;;;;;;;;;8.70;76.00;;;;;;5034810;28;19913;-85
2023/05/24 03:00:19;;;;;;;;;;;8.60;76.30;;;;;;5036320;28;19917;-85
2023/05/24 03:02:46;;;;;;;;;;;8.60;76.80;;;;;;5057223;28;20012;-86
2023/05/24 03:05:12;;;;;;;;;;;8.60;77.20;;;;;;5045757;28;19927;-86
2023/05/24 03:07:37;;;;;;;;;;;8.60;77.10;;;;;;5035837;28;20007;-85
2023/05/24 03:10:03;;;;;;;;;;;8.50;78.30;;;;;;5050941;28;19924;-85
2023/05/24 03:12:28;;;;;;;;;;;8.60;78.10;;;;;;5035428;28;20020;-85
2023/05/24 03:14:54;;;;;;;;;;;8.60;78.30;;;;;;5035371;28;19917;-86
2023/05/24 03:17:19;;;;;;;;;;;8.60;77.90;;;;;;5034747;28;20000;-86
2023/05/24 03:19:45;;;;;;;;;;;8.60;78.20;;;;;;5035087;28;19952;-85
2023/05/24 03:22:10;;;;;;;;;;;8.60;78.20;;;;;;5033771;28;19920;-86
2023/05/24 03:24:37;;;;;;;;;;;8.70;77.90;;;;;;5030226;28;19913;-86
2023/05/24 03:27:03;;;;;;;;;;;8.70;76.70;;;;;;5036579;28;19913;-86
2023/05/24 03:29:28;;;;;;;;;;;8.80;76.70;;;;;;5035746;28;19917;-86
2023/05/24 03:31:54;;;;;;;;;;;8.80;76.40;;;;;;5057668;28;19976;-86
2023/05/24 03:34:19;;;;;;;;;;;8.80;76.40;;;;;;5047448;28;20367;-86
2023/05/24 03:36:45;;;;;;;;;;;8.70;77.30;;;;;;5034309;28;20295;-86
2023/05/24 03:39:10;;;;;;;;;;;8.90;77.00;;;;;;5032733;28;19913;-86
2023/05/24 03:41:35;;;;;;;;;;;8.90;77.30;;;;;;5036464;28;19972;-86
2023/05/24 03:44:01;;;;;;;;;;;8.80;77.10;;;;;;5033726;28;19920;-86
2023/05/24 03:46:26;;;;;;;;;;;8.70;77.50;;;;;;5048510;28;20287;-85
2023/05/24 03:48:52;;;;;;;;;;;8.70;77.90;;;;;;5034820;28;20444;-85
2023/05/24 03:51:17;;;;;;;;;;;8.70;78.00;;;;;;5046383;28;19919;-86
2023/05/24 03:53:43;;;;;;;;;;;8.90;77.10;;;;;;5039157;28;19924;-86
2023/05/24 03:56:08;;;;;;;;;;;8.90;76.80;;;;;;5035140;28;19924;-87
2023/05/24 03:58:34;;;;;;;;;;;8.80;77.40;;;;;;5031920;28;20002;-86
2023/05/24 04:00:59;;;;;;;;;;;8.80;77.30;;;;;;5035289;28;19936;-86
2023/05/24 04:03:25;;;;;;;;;;;8.80;77.40;;;;;;5038196;28;19913;-85
2023/05/24 04:05:51;;;;;;;;;;;8.70;77.90;;;;;;5039496;28;19913;-86
2023/05/24 04:08:16;;;;;;;;;;;8.70;78.20;;;;;;5029378;28;20011;-85
2023/05/24 04:10:42;;;;;;;;;;;8.70;78.80;;;;;;5035032;28;19963;-85
2023/05/24 04:13:07;;;;;;;;;;;8.90;78.00;;;;;;5032920;28;19952;-86
2023/05/24 04:15:33;;;;;;;;;;;8.90;77.90;;;;;;5037955;28;19913;-86
2023/05/24 04:17:59;;;;;;;;;;;8.90;77.50;;;;;;5032153;28;19917;-86
2023/05/24 04:20:26;;;;;;;;;;;8.90;77.50;;;;;;5047883;28;19956;-85
2023/05/24 04:22:52;;;;;;;;;;;8.90;77.50;;;;;;5028346;28;20438;-86
2023/05/24 04:25:17;;;;;;;;;;;8.90;77.70;;;;;;5033265;28;19949;-85
2023/05/24 04:27:43;;;;;;;;;;;8.80;77.90;;;;;;5025159;28;19913;-85
2023/05/24 04:30:09;;;;;;;;;;;8.80;78.40;;;;;;5032308;28;20304;-85
2023/05/24 04:32:35;;;;;;;;;;;8.90;78.00;;;;;;5035169;28;19909;-86
2023/05/24 04:35:04;;;;;;;;;;;8.90;78.30;;;;;;5035475;28;19936;-86
2023/05/24 04:37:30;;;;;;;;;;;9.10;78.20;;;;;;5033133;28;19916;-86
2023/05/24 04:39:56;;;;;;;;;;;9.00;78.10;;;;;;5023793;28;19957;-86
2023/05/24 04:42:22;;;;;;;;;;;9.00;78.10;;;;;;5049971;28;20255;-86
2023/05/24 04:44:47;;;;;;;;;;;9.10;78.30;;;;;;5049763;28;19913;-85
2023/05/24 04:47:13;;;;;;;;;;;9.10;78.40;;;;;;5034278;28;20009;-86
2023/05/24 04:49:38;;;;;;;;;;;9.10;78.40;;;;;;5029732;28;19924;-86
2023/05/24 04:52:04;;;;;;;;;;;9.10;78.30;;;;;;5052290;22;19929;-82
2023/05/24 04:54:29;;;;;;;;;;;9.10;78.70;;;;;;5039332;28;19924;-82
2023/05/24 04:56:55;;;;;;;;;;;9.20;78.90;;;;;;5038701;28;19920;-81
2023/05/24 04:59:20;;;;;;;;;;;9.30;79.70;;;;;;5044185;28;20133;-80
2023/05/24 05:01:46;;;;;;;;;;;9.50;79.60;;;;;;5034535;28;19944;-83
2023/05/24 05:04:11;;;;;;;;;;;9.60;78.50;;;;;;5039502;28;19935;-80
2023/05/24 05:06:39;;;;;;;;;;;9.70;78.50;;;;;;5040027;28;19912;-80
2023/05/24 05:09:08;;;;;;;;;;;9.90;78.80;;;;;;5036875;28;19988;-80
2023/05/24 05:11:34;;;;;;;;;;;10.00;78.60;;;;;;5045055;28;19925;-83
2023/05/24 05:13:59;;;;;;;;;;;9.90;78.50;;;;;;5037789;28;20004;-81
2023/05/24 05:16:24;;;;;;;;;;;9.80;78.80;;;;;;5037311;28;19920;-82
2023/05/24 05:18:50;;;;;;;;;;;9.90;78.90;;;;;;5049193;28;19999;-81
2023/05/24 05:21:16;;;;;;;;;;;10.00;79.00;;;;;;5040823;28;19917;-83
2023/05/24 05:23:41;;;;;;;;;;;10.00;79.00;;;;;;5037296;28;19916;-82
2023/05/24 05:26:07;;;;;;;;;;;10.10;78.70;;;;;;5056141;28;19974;-81
2023/05/24 05:28:36;;;;;;;;;;;10.30;78.60;;;;;;5049270;28;19920;-84
2023/05/24 05:31:01;;;;;;;;;;;10.30;78.30;;;;;;5049726;28;19925;-82
2023/05/24 05:33:27;;;;;;;;;;;10.50;78.70;;;;;;5069234;28;19967;-84
2023/05/24 05:35:53;;;;;;;;;;;10.60;78.50;;;;;;5054536;28;19917;-82
2023/05/24 05:38:18;;;;;;;;;;;10.70;77.90;;;;;;5047685;28;19920;-82
2023/05/24 05:40:44;;;;;;;;;;;10.80;77.30;;;;;;5037122;28;19956;-81
2023/05/24 05:43:09;;;;;;;;;;;10.80;77.20;;;;;;5066306;28;19938;-83
2023/05/24 05:45:35;;;;;;;;;;;10.90;77.10;;;;;;5042595;28;19909;-82
2023/05/24 05:48:00;;;;;;;;;;;10.80;77.40;;;;;;5060984;28;19924;-83
2023/05/24 05:50:26;;;;;;;;;;;11.00;77.40;;;;;;5064796;28;19912;-83
2023/05/24 05:52:56;;;;;;;;;;;11.00;76.70;;;;;;5062885;28;20355;-83
2023/05/24 05:55:22;;;;;;;;;;;11.10;75.00;;;;;;5063323;28;19935;-83
2023/05/24 05:57:48;;;;;;;;;;;11.00;74.40;;;;;;5065514;28;20250;-83
2023/05/24 06:00:13;;;;;;;;;;;11.00;74.60;;;;;;5053936;28;19913;-82
2023/05/24 06:02:39;;;;;;;;;;;11.20;74.90;;;;;;5066850;28;19939;-83
2023/05/24 06:05:22;;;;;;;;;;;11.30;74.30;;;;;;5049899;28;19913;-83
2023/05/24 06:07:49;;;;;;;;;;;11.20;74.20;;;;;;5050757;28;19993;-84
2023/05/24 06:10:15;;;;;;;;;;;11.40;74.80;;;;;;5072671;28;19919;-83
2023/05/24 06:12:40;;;;;;;;;;;11.50;74.20;;;;;;5064477;28;19920;-83
2023/05/24 06:15:06;;;;;;;;;;;11.50;73.40;;;;;;5043214;28;20054;-83
2023/05/24 06:17:51;;;;;;;;;;;;;;;;;;;;;
2023/05/24 06:20:20;;;;;;;;;;;11.60;73.00;;;;;;5066761;28;19943;-84
2023/05/24 06:23:19;;;;;;;;;;;11.60;72.60;;;;;;5048384;28;20399;-84
2023/05/24 06:25:47;;;;;;;;;;;11.70;72.70;;;;;;4999408;28;19920;-84
2023/05/24 06:28:14;;;;;;;;;;;11.80;72.30;;;;;;5046089;28;20394;-84
2023/05/24 06:30:45;;;;;;;;;;;11.80;71.90;;;;;;5048543;28;19916;-84
2023/05/24 06:33:19;;;;;;;;;;;11.70;71.80;;;;;;5060725;28;19909;-83
2023/05/24 06:35:45;;;;;;;;;;;11.70;70.90;;;;;;5059307;28;19913;-82
2023/05/24 06:38:11;;;;;;;;;;;11.60;72.00;;;;;;5060466;28;19992;-83
2023/05/24 06:40:36;;;;;;;;;;;11.60;71.30;;;;;;5064264;28;19913;-83
2023/05/24 06:43:02;;;;;;;;;;;11.60;72.00;;;;;;5064953;28;19951;-81
2023/05/24 06:45:28;;;;;;;;;;;11.70;72.30;;;;;;5038165;28;19920;-81
2023/05/24 06:47:53;;;;;;;;;;;11.70;72.00;;;;;;5042223;28;19913;-80
2023/05/24 06:50:19;;;;;;;;;;;11.50;72.70;;;;;;5030879;28;20003;-82
2023/05/24 06:52:44;;;;;;;;;;;11.60;72.40;;;;;;5040257;28;19923;-82
2023/05/24 06:55:10;;;;;;;;;;;11.60;72.50;;;;;;5057925;28;19916;-82
2023/05/24 06:57:36;;;;;;;;;;;11.60;73.30;;;;;;5060660;28;19994;-81
2023/05/24 07:00:03;;;;;;;;;;;11.80;72.20;;;;;;5038633;28;20000;-80
2023/05/24 07:02:29;;;;;;;;;;;11.90;71.30;;;;;;5056336;28;19920;-82
2023/05/24 07:04:55;;;;;;;;;;;12.00;71.80;;;;;;5040671;28;19917;-83
2023/05/24 07:07:21;;;;;;;;;;;12.10;70.80;;;;;;5039257;28;19917;-83
2023/05/24 07:09:46;;;;;;;;;;;12.00;71.30;;;;;;5049812;28;19916;-81
2023/05/24 07:12:12;;;;;;;;;;;12.00;71.60;;;;;;5053167;28;19920;-81
2023/05/24 07:14:37;;;;;;;;;;;12.00;71.90;;;;;;5058575;28;19940;-82
2023/05/24 07:17:03;;;;;;;;;;;12.20;71.30;;;;;;5050420;28;19913;-81
2023/05/24 07:19:28;;;;;;;;;;;12.40;70.90;;;;;;5041650;28;20354;-82
2023/05/24 07:21:57;;;;;;;;;;;12.30;70.00;;;;;;5035693;28;19919;-80
2023/05/24 07:24:23;;;;;;;;;;;12.10;70.80;;;;;;5056023;28;20356;-82
2023/05/24 07:26:49;;;;;;;;;;;12.10;71.00;;;;;;5041293;28;20063;-81
2023/05/24 07:29:15;;;;;;;;;;;11.90;72.60;;;;;;5046108;28;20360;-84
2023/05/24 07:31:41;;;;;;;;;;;12.00;72.60;;;;;;5033972;28;19913;-83
2023/05/24 07:34:06;;;;;;;;;;;11.90;71.90;;;;;;5047461;28;19956;-82
2023/05/24 07:36:32;;;;;;;;;;;11.90;72.40;;;;;;5050333;28;19956;-85
2023/05/24 07:38:59;;;;;;;;;;;11.90;72.20;;;;;;5035284;28;19921;-83
2023/05/24 07:41:26;;;;;;;;;;;12.00;72.10;;;;;;5036162;28;20364;-83
2023/05/24 07:43:52;;;;;;;;;;;12.10;71.60;;;;;;5033131;28;20149;-84
2023/05/24 07:46:17;;;;;;;;;;;12.30;69.50;;;;;;5033817;28;19966;-83
2023/05/24 07:48:43;;;;;;;;;;;12.30;68.60;;;;;;5052194;28;19917;-85
2023/05/24 07:51:08;;;;;;;;;;;12.40;68.30;;;;;;5051389;28;19916;-84
2023/05/24 07:53:36;;;;;;;;;;;12.50;67.80;;;;;;5053832;28;19917;-84
2023/05/24 07:56:02;;;;;;;;;;;12.50;68.40;;;;;;5043263;28;19985;-83
2023/05/24 07:58:28;;;;;;;;;;;12.60;68.80;;;;;;5049896;28;19967;-84
2023/05/24 08:00:53;;;;;;;;;;;12.80;66.70;;;;;;5034476;28;20035;-85
2023/05/24 08:03:18;;;;;;;;;;;12.70;67.10;;;;;;5037623;28;20343;-84
2023/05/24 08:05:44;;;;;;;;;;;12.60;67.90;;;;;;5061766;28;19912;-84
2023/05/24 08:08:09;;;;;;;;;;;12.70;66.30;;;;;;5056674;28;19912;-85
2023/05/24 08:10:35;;;;;;;;;;;12.50;65.70;;;;;;5076722;23;20065;-85
2023/05/24 08:13:02;;;;;;;;;;;12.30;66.50;;;;;;5054730;28;19920;-84
2023/05/24 08:15:27;;;;;;;;;;;12.20;67.70;;;;;;5050676;28;19916;-85
2023/05/24 08:17:53;;;;;;;;;;;12.20;67.60;;;;;;5047109;28;19920;-84
2023/05/24 08:20:19;;;;;;;;;;;12.20;68.50;;;;;;5048140;28;19913;-87
2023/05/24 08:22:44;;;;;;;;;;;12.60;68.00;;;;;;5050642;28;19917;-86
2023/05/24 08:25:13;;;;;;;;;;;13.00;66.10;;;;;;5050712;28;19932;-86
2023/05/24 08:27:39;;;;;;;;;;;13.00;65.60;;;;;;5051963;28;19913;-86
2023/05/24 08:30:06;;;;;;;;;;;12.90;65.30;;;;;;5060638;28;19921;-87
2023/05/24 08:32:31;;;;;;;;;;;12.90;65.70;;;;;;5055082;28;19916;-86
2023/05/24 08:34:57;;;;;;;;;;;12.90;66.30;;;;;;5057227;28;19920;-87
2023/05/24 08:37:22;;;;;;;;;;;12.90;66.50;;;;;;5076945;28;20473;-86
2023/05/24 08:39:48;;;;;;;;;;;12.90;65.80;;;;;;5061573;28;19970;-87
2023/05/24 08:42:14;;;;;;;;;;;13.00;65.70;;;;;;5054597;28;19919;-86
2023/05/24 08:44:42;;;;;;;;;;;13.00;66.30;;;;;;5057385;28;19920;-87
2023/05/24 08:47:08;;;;;;;;;;;13.10;65.30;;;;;;5072261;28;19936;-88
2023/05/24 08:49:36;;;;;;;;;;;13.20;65.20;;;;;;5062213;28;20362;-87
2023/05/24 08:52:02;;;;;;;;;;;13.30;64.50;;;;;;5084783;28;20023;-86
2023/05/24 08:54:28;;;;;;;;;;;13.20;64.90;;;;;;5057751;28;20077;-87
2023/05/24 08:56:53;;;;;;;;;;;13.10;65.80;;;;;;5059072;28;21730;-87
2023/05/24 08:59:19;;;;;;;;;;;13.10;66.00;;;;;;5062318;28;19913;-87
2023/05/24 09:01:49;;;;;;;;;;;13.30;64.90;;;;;;5079769;28;19959;-87
2023/05/24 09:04:15;;;;;;;;;;;13.60;62.50;;;;;;5061690;28;20378;-87
2023/05/24 09:06:41;;;;;;;;;;;13.60;62.70;;;;;;5078383;28;19912;-87
2023/05/24 09:09:08;;;;;;;;;;;13.70;62.20;;;;;;5061754;28;20439;-87
2023/05/24 09:11:34;;;;;;;;;;;13.60;63.00;;;;;;5059804;28;20370;-86
2023/05/24 09:14:01;;;;;;;;;;;13.60;62.30;;;;;;5054718;28;22851;-86
2023/05/24 09:16:27;;;;;;;;;;;13.50;62.50;;;;;;5054149;28;19948;-87
2023/05/24 09:18:53;;;;;;;;;;;13.60;63.30;;;;;;5051280;28;19920;-87
2023/05/24 09:21:19;;;;;;;;;;;13.80;61.80;;;;;;5050770;28;19912;-88
2023/05/24 09:23:45;;;;;;;;;;;13.60;61.90;;;;;;5049606;28;19913;-87
2023/05/24 09:26:12;;;;;;;;;;;13.50;61.90;;;;;;5047334;28;19913;-84
2023/05/24 09:28:41;;;;;;;;;;;13.40;61.40;;;;;;5049518;28;19963;-86
2023/05/24 09:31:06;;;;;;;;;;;13.50;61.90;;;;;;5042504;28;20178;-85
2023/05/24 09:33:33;;;;;;;;;;;13.40;61.90;;;;;;5049200;28;19938;-85
2023/05/24 09:36:02;;;;;;;;;;;13.50;61.90;;;;;;5049762;28;19944;-84
2023/05/24 09:38:28;;;;;;;;;;;13.60;62.20;;;;;;5051821;28;19933;-84
2023/05/24 09:41:01;;;;;;;;;;;13.50;63.10;;;;;;5045937;28;19920;-84
2023/05/24 09:43:28;;;;;;;;;;;13.60;62.30;;;;;;5042602;28;19916;-85
2023/05/24 09:45:56;;;;;;;;;;;13.60;64.30;;;;;;5049320;28;20011;-86
2023/05/24 09:48:25;;;;;;;;;;;13.70;63.70;;;;;;5047067;28;20007;-86
2023/05/24 09:51:03;;;;;;;;;;;13.90;61.70;;;;;;5049280;28;20054;-85
2023/05/24 09:53:31;;;;;;;;;;;13.60;62.50;;;;;;5049396;28;19919;-85
2023/05/24 09:56:00;;;;;;;;;;;13.80;61.70;;;;;;5049981;28;19917;-85
2023/05/24 09:58:32;;;;;;;;;;;13.80;61.40;;;;;;5045864;28;19914;-84
2023/05/24 10:01:17;;;;;;;;;;;14.00;60.90;;;;;;5047671;28;19916;-84
2023/05/24 10:04:01;;;;;;;;;;;14.10;61.00;;;;;;5046277;28;19921;-84
2023/05/24 10:06:31;;;;;;;;;;;14.10;59.70;;;;;;5048877;28;19935;-85
2023/05/24 10:08:57;;;;;;;;;;;14.10;58.20;;;;;;5049492;28;19956;-85
2023/05/24 10:11:41;;;;;;;;;;;;;;;;;;;;;
2023/05/24 10:14:08;;;;;;;;;;;14.10;59.30;;;;;;5049827;28;19916;-87
2023/05/24 10:19:25;;;;;;;;;;;14.10;60.20;;;;;;5051769;28;19920;-85
2023/05/24 10:21:52;;;;;;;;;;;14.20;59.90;;;;;;5053391;28;19920;-85
2023/05/24 10:24:22;;;;;;;;;;;14.20;60.40;;;;;;5054316;28;19917;-84
2023/05/24 10:26:48;;;;;;;;;;;14.00;61.90;;;;;;5054102;28;19912;-84
2023/05/24 10:29:24;;;;;;;;;;;14.10;60.00;;;;;;5053711;28;19970;-85
2023/05/24 10:31:55;;;;;;;;;;;14.00;61.50;;;;;;5054239;28;19932;-86
2023/05/24 10:34:29;;;;;;;;;;;14.10;60.50;;;;;;5056250;28;19920;-87
2023/05/24 10:36:56;;;;;;;;;;;13.90;61.90;;;;;;5059913;28;19944;-86
2023/05/24 10:39:22;;;;;;;;;;;13.80;62.30;;;;;;5060050;28;19913;-85
2023/05/24 10:41:50;;;;;;;;;;;13.80;63.40;;;;;;5057791;28;19959;-84
2023/05/24 10:44:27;;;;;;;;;;;13.90;63.00;;;;;;5053602;28;19921;-85
2023/05/24 10:47:05;;;;;;;;;;;13.90;63.40;;;;;;5052218;28;19956;-84
2023/05/24 10:49:35;;;;;;;;;;;13.80;62.60;;;;;;5051186;28;19963;-84
2023/05/24 10:52:08;;;;;;;;;;;13.80;62.40;;;;;;5083519;22;20087;-82
2023/05/24 10:54:35;;;;;;;;;;;14.00;61.60;;;;;;5018365;28;19918;-83
2023/05/24 10:57:03;;;;;;;;;;;14.20;60.70;;;;;;5014870;28;20003;-84
2023/05/24 10:59:33;;;;;;;;;;;14.60;58.30;;;;;;5023281;28;19913;-84
2023/05/24 11:01:59;;;;;;;;;;;14.60;59.00;;;;;;5046662;28;19909;-84
2023/05/24 11:04:25;;;;;;;;;;;14.60;57.80;;;;;;5020284;28;19945;-84
2023/05/24 11:07:01;;;;;;;;;;;14.60;59.40;;;;;;5026222;28;19914;-84
2023/05/24 11:09:28;;;;;;;;;;;14.50;59.30;;;;;;5021693;28;20379;-85
2023/05/24 11:12:02;;;;;;;;;;;14.40;58.80;;;;;;5022810;28;19913;-84
2023/05/24 11:14:29;;;;;;;;;;;14.20;60.90;;;;;;5015840;28;19913;-82
2023/05/24 11:16:55;;;;;;;;;;;13.90;60.00;;;;;;5015005;28;20397;-84
2023/05/24 11:19:22;;;;;;;;;;;14.10;59.40;;;;;;5029833;28;19914;-83
2023/05/24 11:21:52;;;;;;;;;;;13.80;60.90;;;;;;5030303;28;19976;-83
2023/05/24 11:24:18;;;;;;;;;;;13.80;61.90;;;;;;5032376;28;19981;-85
2023/05/24 11:26:44;;;;;;;;;;;13.90;62.70;;;;;;5025567;28;20018;-83
2023/05/24 11:29:12;;;;;;;;;;;13.90;62.40;;;;;;5005491;28;21043;-83
2023/05/24 11:31:38;;;;;;;;;;;14.00;62.30;;;;;;5016469;28;19920;-85
2023/05/24 11:34:09;;;;;;;;;;;13.90;62.70;;;;;;5040570;28;19948;-85
2023/05/24 11:36:35;;;;;;;;;;;13.80;61.80;;;;;;5017526;28;19921;-88
2023/05/24 11:39:00;;;;;;;;;;;13.90;61.00;;;;;;5031205;28;19975;-85
2023/05/24 11:41:27;;;;;;;;;;;13.80;60.30;;;;;;5024295;28;20406;-86
2023/05/24 11:43:53;;;;;;;;;;;13.60;61.00;;;;;;5015564;28;19913;-83
2023/05/24 11:46:19;;;;;;;;;;;13.60;61.50;;;;;;5027903;28;19928;-84
2023/05/24 11:48:54;;;;;;;;;;;13.70;61.60;;;;;;5032389;28;19917;-83
2023/05/24 11:51:24;;;;;;;;;;;14.00;60.70;;;;;;5023579;28;19931;-83
2023/05/24 11:53:50;;;;;;;;;;;14.10;60.10;;;;;;5038403;28;20279;-84
2023/05/24 11:56:15;;;;;;;;;;;14.00;60.90;;;;;;5040147;28;19924;-84
2023/05/24 11:58:44;;;;;;;;;;;13.90;61.10;;;;;;5044885;28;20456;-84
2023/05/24 12:01:26;;;;;;;;;;;13.80;61.40;;;;;;5023756;28;19997;-83
2023/05/24 12:03:53;;;;;;;;;;;14.00;61.10;;;;;;5043983;28;19945;-82
2023/05/24 12:06:18;;;;;;;;;;;13.90;61.20;;;;;;5021617;28;20300;-84
2023/05/24 12:08:44;;;;;;;;;;;14.00;61.00;;;;;;5018452;28;19917;-83
2023/05/24 12:11:10;;;;;;;;;;;14.20;60.30;;;;;;5020432;28;19963;-83
2023/05/24 12:13:36;;;;;;;;;;;14.20;60.30;;;;;;5020103;28;19964;-83
2023/05/24 12:16:02;;;;;;;;;;;14.30;60.40;;;;;;5036920;28;19909;-84
2023/05/24 12:18:27;;;;;;;;;;;14.40;60.20;;;;;;5035338;28;19913;-84
2023/05/24 12:20:53;;;;;;;;;;;14.20;60.50;;;;;;5020968;28;19913;-84
2023/05/24 12:23:20;;;;;;;;;;;14.30;62.30;;;;;;5036960;28;19917;-84
2023/05/24 12:25:45;;;;;;;;;;;14.40;60.20;;;;;;5031610;28;21953;-84
2023/05/24 12:28:11;;;;;;;;;;;14.50;61.00;;;;;;5016579;28;19924;-84
2023/05/24 12:30:41;;;;;;;;;;;14.50;60.70;;;;;;5015948;28;19924;-84
2023/05/24 12:33:08;;;;;;;;;;;14.90;59.30;;;;;;5030555;28;19920;-84
2023/05/24 12:35:33;;;;;;;;;;;14.80;59.90;;;;;;5035077;28;19909;-83
2023/05/24 12:38:02;;;;;;;;;;;15.00;59.20;;;;;;5025997;28;19958;-83
2023/05/24 12:40:32;;;;;;;;;;;14.60;59.50;;;;;;5017967;28;19921;-84
2023/05/24 12:42:58;;;;;;;;;;;14.50;61.00;;;;;;5018461;28;19909;-84
2023/05/24 12:45:24;;;;;;;;;;;14.40;61.70;;;;;;5036200;28;19909;-83
2023/05/24 12:47:51;;;;;;;;;;;14.60;62.00;;;;;;5020842;28;20441;-85
2023/05/24 12:50:20;;;;;;;;;;;14.70;61.10;;;;;;5018675;28;19917;-84
2023/05/24 12:52:46;;;;;;;;;;;15.00;59.70;;;;;;5030346;28;19924;-84
2023/05/24 12:55:12;;;;;;;;;;;15.10;59.10;;;;;;5027573;28;19917;-85
2023/05/24 12:57:38;;;;;;;;;;;14.90;59.50;;;;;;5015717;28;19919;-84
2023/05/24 13:00:04;;;;;;;;;;;14.90;58.50;;;;;;5015908;28;19913;-83
2023/05/24 13:02:32;;;;;;;;;;;14.80;58.50;;;;;;5019016;28;19913;-84
2023/05/24 13:04:58;;;;;;;;;;;14.60;59.80;;;;;;5031276;28;19967;-84
2023/05/24 13:07:23;;;;;;;;;;;14.70;59.70;;;;;;5014661;28;19928;-83
2023/05/24 13:09:49;;;;;;;;;;;14.50;61.20;;;;;;5028220;28;19925;-82
2023/05/24 13:12:14;;;;;;;;;;;14.50;60.00;;;;;;5021586;28;19928;-82
2023/05/24 13:14:40;;;;;;;;;;;14.50;60.10;;;;;;5032166;28;20385;-82
2023/05/24 13:17:06;;;;;;;;;;;14.80;59.80;;;;;;5027387;28;19909;-83
2023/05/24 13:19:32;;;;;;;;;;;14.90;59.80;;;;;;5015487;28;19917;-82
2023/05/24 13:21:57;;;;;;;;;;;14.90;59.60;;;;;;5017530;28;20019;-82
2023/05/24 13:24:23;;;;;;;;;;;14.80;60.50;;;;;;5010331;28;19935;-84
2023/05/24 13:26:48;;;;;;;;;;;14.70;61.30;;;;;;5026508;28;20004;-83
2023/05/24 13:29:14;;;;;;;;;;;14.70;60.00;;;;;;5021019;28;20398;-84
2023/05/24 13:31:39;;;;;;;;;;;14.50;61.70;;;;;;5031148;28;19913;-84
2023/05/24 13:34:05;;;;;;;;;;;14.40;61.90;;;;;;5026928;28;20403;-84
2023/05/24 13:36:30;;;;;;;;;;;14.50;61.60;;;;;;5030581;28;19917;-84
2023/05/24 13:38:57;;;;;;;;;;;14.40;62.10;;;;;;5014645;28;19909;-84
2023/05/24 13:41:23;;;;;;;;;;;14.40;61.00;;;;;;5013833;28;19920;-84
2023/05/24 13:43:49;;;;;;;;;;;14.50;62.80;;;;;;5011907;28;19920;-84
2023/05/24 13:46:14;;;;;;;;;;;14.70;61.70;;;;;;5015261;28;19914;-84
2023/05/24 13:48:40;;;;;;;;;;;14.90;61.90;;;;;;5031554;28;20390;-84
2023/05/24 13:51:06;;;;;;;;;;;15.10;59.80;;;;;;5030600;28;19943;-84
2023/05/24 13:53:31;;;;;;;;;;;15.30;58.80;;;;;;5029287;28;20006;-84
2023/05/24 13:55:57;;;;;;;;;;;15.30;59.10;;;;;;5013167;28;20338;-83
2023/05/24 13:58:23;;;;;;;;;;;15.60;58.20;;;;;;5007834;28;19936;-83
2023/05/24 14:00:48;;;;;;;;;;;15.40;59.30;;;;;;5025811;28;19947;-85
2023/05/24 14:03:14;;;;;;;;;;;15.50;59.60;;;;;;5028828;28;19917;-84
2023/05/24 14:05:40;;;;;;;;;;;15.60;59.30;;;;;;5013105;28;19998;-84
2023/05/24 14:08:06;;;;;;;;;;;15.50;58.10;;;;;;5046151;28;19956;-84
2023/05/24 14:10:32;;;;;;;;;;;15.00;59.20;;;;;;5056252;28;20016;-84
2023/05/24 14:12:58;;;;;;;;;;;14.80;60.40;;;;;;5025839;28;20388;-84
2023/05/24 14:15:23;;;;;;;;;;;14.90;61.00;;;;;;5014444;28;19913;-83
2023/05/24 14:17:49;;;;;;;;;;;14.90;61.70;;;;;;5012154;28;20520;-84
2023/05/24 14:20:15;;;;;;;;;;;15.00;61.20;;;;;;5013728;28;19925;-84
2023/05/24 14:22:40;;;;;;;;;;;15.10;61.20;;;;;;5018015;28;20272;-84
2023/05/24 14:25:07;;;;;;;;;;;15.30;61.50;;;;;;5017638;28;19913;-84
2023/05/24 14:27:32;;;;;;;;;;;15.40;60.40;;;;;;5017800;28;19917;-85
2023/05/24 14:29:57;;;;;;;;;;;15.20;60.10;;;;;;5036586;28;19913;-85
2023/05/24 14:32:23;;;;;;;;;;;15.30;61.30;;;;;;5037619;28;19913;-85
2023/05/24 14:34:48;;;;;;;;;;;15.60;62.10;;;;;;5026382;28;19995;-85
2023/05/24 14:37:17;;;;;;;;;;;15.90;62.70;;;;;;5023295;28;19924;-85
2023/05/24 14:39:42;;;;;;;;;;;15.90;60.50;;;;;;5018033;28;20535;-85
2023/05/24 14:42:08;;;;;;;;;;;16.00;58.70;;;;;;5035362;28;19912;-85
2023/05/24 14:44:33;;;;;;;;;;;16.10;58.00;;;;;;5035574;28;19951;-84
2023/05/24 14:46:59;;;;;;;;;;;16.10;57.00;;;;;;5017850;28;19924;-84
2023/05/24 14:49:24;;;;;;;;;;;16.10;57.60;;;;;;5015282;28;19921;-84
2023/05/24 14:51:50;;;;;;;;;;;16.10;58.20;;;;;;5011972;28;20252;-84